35th Annual Sugar Land Turkey Trot

Age Group Results

November 26, 2020


Results By Run Houston Timing runhoustontiming.net


5 Mile Turkey Trot Men: Top Finishers 1-14 15-19 20-24 25-29 30-34 35-39 40-44 45-49 50-54 55-59 60-64 65-99
5 Mile Turkey Trot Women: Top Finishers 1-14 15-19 20-24 25-29 30-34 35-39 40-44 45-49 50-54 55-59 60-64 65-99
Blind Runner Men: 1-99

5 Mile Turkey Trot

Top

Female Overall Winners

Place Name City Bib No Age Overall Total Time Pace
1 Kim Lowry Houston TX 233 29 6 29:47.5 5:58/M
Top

Female Masters Winners

Place Name City Bib No Age Overall Total Time Pace
1 Molly Urbani Bellaire TX 140 45 14 31:17.6 6:16/M
Top

Female 14 and Under

Place Name City Bib No Age Overall Total Time Pace
1 Hayley Moffett Sugar Land TX 313 14 67 38:51.5 7:46/M
2 Shepherd Gregg Houston TX 346 14 75 39:12.0 7:50/M
3 Sarie Goodweather Houston TX 273 14 139 46:01.6 9:12/M
4 Molly Ellis Cypress TX 255 11 190 51:35.1 10:19/M
5 Adley Halligan Sugar Land TX 29 14 289 1:22:57.9 16:36/M
Top

Female 15 to 19

Place Name City Bib No Age Overall Total Time Pace
1 Cate Urbani Bellaire TX 293 17 18 31:59.4 6:24/M
2 Eleni Kaiser Sugar Land TX 55 18 26 34:02.3 6:48/M
3 Haley Harkrider Richmond TX 52 16 27 34:02.3 6:48/M
4 Marygrace Urbani Bellaire TX 198 19 31 34:42.5 6:57/M
5 Victoria Kaiser Sugar Land TX 56 15 51 37:18.8 7:28/M
6 Hewan Abunei Cypress TX 332 15 60 38:16.5 7:39/M
7 Lucy Holden Houston TX 328 16 76 39:12.1 7:50/M
8 Konni Brown Tomball TX 131 16 84 40:02.3 8:00/M
9 Elyssa Rodarte Sugar Land TX 349 15 94 41:12.9 8:15/M
10 Rose Sabol Sugar Land TX 3 17 128 44:42.7 8:57/M
11 Kate Holden Houston TX 329 15 162 48:36.1 9:43/M
12 Rosalind Coats Houston TX 99 18 172 49:27.1 9:53/M
13 Kate Binau Bellaire TX 259 18 224 58:16.5 11:39/M
14 Tyler Gray Sugar Land TX 231 16 291 1:31:14.8 18:15/M
Top

Female 20 to 24

Place Name City Bib No Age Overall Total Time Pace
1 Cheyenne Horst Sugar Land TX 315 22 63 38:28.0 7:42/M
2 Mya Perez Sugar Land TX 51 24 70 38:59.6 7:48/M
3 Karis Blankenship Sugar Land TX 48 22 93 41:05.7 8:13/M
4 Kourtney Brown Tomball TX 133 23 121 44:12.3 8:50/M
5 Brooke Shipley Sugar Land TX 295 23 155 47:58.9 9:36/M
6 Annie Sweeney Sugar Land TX 161 22 156 48:07.7 9:38/M
7 Emily Rimes Sugar Land TX 343 23 163 48:50.2 9:46/M
8 Morgan Glose Sugar Land TX 179 24 184 50:33.6 10:07/M
9 Katie Hyde Sugar Land TX 195 22 188 51:30.6 10:18/M
10 Sarah Goss Fulshear TX 169 23 258 1:02:45.8 12:33/M
11 Alison Goss Fulshear TX 170 23 260 1:02:46.2 12:33/M
12 Emilie Moellmer Provo UT 136 20 265 1:03:49.0 12:46/M
13 Madeline Coats Houston TX 100 20 282 1:13:00.6 14:36/M
Top

Female 25 to 29

Place Name City Bib No Age Overall Total Time Pace
1 Kelli Tomlinson Houston TX 95 28 29 34:20.3 6:52/M
2 Samantha Sheppard Sugar Land TX 57 28 48 36:57.9 7:24/M
3 Margaret Gullion Sugar Land TX 129 25 103 41:49.0 8:22/M
4 Aranza Chambers Houston TX 286 27 129 44:55.0 8:59/M
5 Steven Chambers Houston TX 285 27 136 45:14.9 9:03/M
6 Savannah Laricci Sugar Land TX 277 25 138 45:50.9 9:10/M
7 Helsea Laricci Sugar Land TX 276 27 143 46:09.8 9:14/M
8 Anna Masters Oklahoma City OK 105 28 144 46:18.4 9:16/M
9 Cindy Masri Sugar Land TX 107 25 199 52:19.9 10:28/M
10 Rania Alzein Richmond TX 279 27 228 58:47.4 11:45/M
11 Anthea Chambers Sealy TX 269 26 242 1:01:04.8 12:13/M
12 Jessica Hunter Deer Park TX 141 27 254 1:02:28.1 12:30/M
13 Michelle Shappee Houston TX 339 26 264 1:03:36.3 12:43/M
Top

Female 30 to 34

Place Name City Bib No Age Overall Total Time Pace
1 Kelly Rainbolt Sugar Land TX 206 34 52 37:26.4 7:29/M
2 Amy MacHemehl Houston TX 75 33 71 39:00.2 7:48/M
3 Kristen Johns Houston TX 176 34 97 41:20.6 8:16/M
4 Sabrina Baez Georgetown TX 227 30 120 44:10.8 8:50/M
5 Aline Alvarenga Houston TX 334 34 182 50:18.2 10:04/M
6 Jennifer Safron Houston TX 61 32 195 51:57.2 10:23/M
7 Jessica Hickey Fort Worth TX 321 34 231 59:26.6 11:53/M
8 Brittany Moreno Richmond TX 178 34 279 1:09:37.9 13:56/M
Top

Female 35 to 39

Place Name City Bib No Age Overall Total Time Pace
1 Anngela Caron Sugar Land TX 46 39 12 31:15.6 6:15/M
2 Kristi Templeton Richmond TX 78 38 35 34:53.4 6:59/M
3 Janet Cheung Katy TX 235 39 36 35:01.3 7:00/M
4 Jessica Brant Corpus Christi TX 210 36 55 37:39.2 7:32/M
5 Sandra Terrazas Houston TX 341 39 57 37:41.8 7:32/M
6 Laura Threatt Richmond TX 154 39 65 38:32.6 7:43/M
7 Brooke Lubojasky Sugar Land TX 207 35 83 39:41.8 7:56/M
8 Robin Dunham Richmond TX 247 37 160 48:23.9 9:41/M
9 Lenora Copeland Richmond TX 246 35 209 54:33.3 10:55/M
10 Amy Parkins Richmond TX 245 35 211 54:46.2 10:57/M
11 Jillian Counts Missouri City TX 12 37 219 55:31.9 11:06/M
12 Judy Kao Sugarland TX 350 38 236 59:33.3 11:55/M
13 Tierney Gerber Sugar Land TX 59 38 237 59:48.8 11:58/M
14 Jessie Rollow Fulshear TX 93 36 245 1:01:12.3 12:14/M
15 Merideth McDonald Austin TX 297 38 250 1:02:02.1 12:24/M
16 Courtney Duncan Sugar Land TX 67 36 261 1:03:15.3 12:39/M
17 Maria Estrella Houston TX 185 36 273 1:06:49.7 13:22/M
Top

Female 40 to 44

Place Name City Bib No Age Overall Total Time Pace
1 Sonia Dhodaplkar Katy TX 16 43 54 37:34.7 7:31/M
2 Mary Moellmer Tomball TX 130 44 77 39:17.2 7:51/M
3 Maria Tran Sugar Land TX 18 44 95 41:13.0 8:15/M
4 Stacy Holden Houston TX 326 44 96 41:17.3 8:15/M
5 Sara McArthur Sugar Land TX 96 44 100 41:26.0 8:17/M
6 Lauren Phillips 103 40 104 41:50.4 8:22/M
7 Jennifer Fontenot Richmond TX 145 40 126 44:30.9 8:54/M
8 Rachael Bryant Sugar Land TX 281 44 133 45:02.3 9:00/M
9 Elizabeth Barber West Columbia TX 139 40 137 45:25.5 9:05/M
10 Lauren Vowell Richmond TX 220 41 141 46:06.7 9:13/M
11 Yunuen Ober Stafford TX 217 41 151 47:25.0 9:29/M
12 Jennifer Graham Houston TX 186 41 153 47:37.3 9:31/M
13 Mary Goebel San Antonio TX 164 44 168 49:13.1 9:51/M
14 Shalini Nair Sugarland TX 199 40 170 49:16.7 9:51/M
15 Carly Engibous Rosenberg TX 251 42 177 50:07.0 10:01/M
16 Karen Ellis Cypress TX 200 40 192 51:38.5 10:20/M
17 Patricia Dawson Houston TX 271 42 227 58:28.2 11:42/M
18 Jaime Peoples Beasley TX 24 42 229 58:57.2 11:47/M
19 Megan Ryan Sugar Land TX 211 40 230 59:13.4 11:51/M
20 Shannon Morolez Sugar Land TX 282 42 233 59:31.1 11:54/M
21 Jessica Renfro Katy TX 272 41 234 59:31.3 11:54/M
22 Melissa Vogan Sugar Land TX 124 43 241 1:00:51.3 12:10/M
23 Jennifer Johnson Sugar Land TX 37 42 269 1:04:50.4 12:58/M
24 Jill Halligan Sugar Land TX 30 42 290 1:22:59.5 16:36/M
25 Krista Hood Sugar Land TX 4 41 292 1:36:16.7 19:15/M
Top

Female 45 to 49

Place Name City Bib No Age Overall Total Time Pace
1 Talley Gregg Houston TX 345 48 39 35:20.2 7:04/M
2 Marcy Allen Sugar Land TX 308 48 82 39:37.4 7:55/M
3 Melinda Hennessey Houston TX 174 49 101 41:27.3 8:17/M
4 Amy Hinnenkamp Houston TX 82 45 116 43:27.3 8:41/M
5 Tracy Moffett Sugar Land TX 312 45 135 45:14.8 9:03/M
6 Kelly Moseley Katy TX 126 49 148 47:07.4 9:25/M
7 Jiji Oh Sugarland TX 114 48 154 47:49.7 9:34/M
8 Jennifer Cox Sugar Land TX 223 46 167 49:06.2 9:49/M
9 Darlene Granados Sugar Land TX 127 48 175 49:51.0 9:58/M
10 Kelley Glore Sugar Land TX 162 46 187 50:59.3 10:12/M
11 Emmeline Mireles Houston TX 190 48 204 53:29.2 10:42/M
12 Ismat Haque Sugar Land TX 152 46 206 53:31.3 10:42/M
Top

Female 50 to 54

Place Name City Bib No Age Overall Total Time Pace
1 Becky Nesbitt Hempstead TX 203 50 42 36:04.1 7:13/M
2 Kathy Halligan Sugar Land TX 28 51 90 41:01.9 8:12/M
3 Marcy Baez Georgetown TX 229 53 107 42:44.0 8:33/M
4 Veronica Garcia Richmond TX 94 53 122 44:16.9 8:51/M
5 Paula Rimes Sugar Land TX 342 52 164 48:50.4 9:46/M
6 Angela Anderson Sugar Land TX 159 53 166 48:58.7 9:48/M
7 Nurian Toy Sugar Land TX 65 54 173 49:34.2 9:55/M
8 Karen Fortson Missouri City TX 31 53 196 52:02.2 10:24/M
9 Diane Jansen Houston TX 197 53 244 1:01:11.8 12:14/M
10 Vivian Winslow Sugar Land TX 249 54 248 1:01:42.1 12:20/M
11 Sina Maria Alvarado Houston TX 239 50 267 1:04:02.4 12:48/M
12 Mayra Cardenas Missouri City TX 237 50 271 1:06:48.7 13:22/M
13 Tracey Younger Katy TX 54 51 278 1:09:14.3 13:51/M
14 Marlene King Sugar Land TX 85 54 280 1:09:55.9 13:59/M
Top

Female 55 to 59

Place Name City Bib No Age Overall Total Time Pace
1 Debbie Coles-Shilcock Fulshear TX 137 57 73 39:08.3 7:50/M
2 Aleksandra Lawera Sugar Land TX 81 55 78 39:21.7 7:52/M
3 Caryn Honig Houston TX 89 55 109 43:03.6 8:37/M
4 Donna Crowley Sugar Land TX 11 55 115 43:25.4 8:41/M
5 Leen Laricci Sugar Land TX 275 59 146 46:31.7 9:18/M
6 Ines Nemoto Houston TX 265 57 180 50:14.7 10:03/M
7 Shannon Powers Houston TX 208 55 222 58:09.7 11:38/M
8 Donna Allotta Missouri City TX 232 57 235 59:32.8 11:55/M
9 Evelyn Paysse Houston TX 98 58 243 1:01:11.3 12:14/M
10 Ericka Collier Sugar Land TX 248 59 247 1:01:40.7 12:20/M
11 Linda Molfetta Missouri City TX 337 57 256 1:02:43.5 12:33/M
12 Kim Dijmek 32 55 262 1:03:15.9 12:39/M
Top

Female 60 to 64

Place Name City Bib No Age Overall Total Time Pace
1 Leslie Coleman Houston TX 188 61 157 48:13.8 9:39/M
2 Cathy Bradford El Paso TX 331 63 158 48:17.3 9:39/M
3 Janis Cook Hattiesburg MS 261 62 216 55:15.9 11:03/M
4 Sara Binau Bellaire TX 257 60 225 58:21.5 11:40/M
5 Cindy Cox Sugar Land TX 193 62 239 1:00:20.1 12:04/M
6 Theresa Strong Houston TX 147 61 251 1:02:03.9 12:25/M
7 Grace Hobby Houston TX 317 63 268 1:04:05.7 12:49/M
Top

Female 65 and Over

Place Name City Bib No Age Overall Total Time Pace
1 Sally Sims Sugar Land TX 21 76 252 1:02:05.7 12:25/M
Top

Male Overall Winners

Place Name City Bib No Age Overall Total Time Pace
1 Julius Michael Houston TX 347 32 1 27:33.0 5:31/M
Top

Male Masters Winners

Place Name City Bib No Age Overall Total Time Pace
1 Tojo Thomas Bellaire TX 196 41 13 31:16.4 6:15/M
Top

Male 14 and Under

Place Name City Bib No Age Overall Total Time Pace
1 Noah Pasuquin Sugar Land TX 92 14 16 31:57.3 6:23/M
2 Cody Hogan Sugar Land TX 344 14 40 35:26.3 7:05/M
3 Andrew Johnson Sugar Land TX 39 14 64 38:28.6 7:42/M
4 Matthew Nemoto Houston TX 268 14 86 40:36.6 8:07/M
5 Jude Churchwell Missouri City TX 320 12 105 42:10.0 8:26/M
6 Michael Johnson Sugar Land TX 258 14 106 42:24.6 8:29/M
7 Logan Childs Missouri City TX 90 10 117 43:43.3 8:45/M
8 Michael Ross Sugar Land TX 88 11 238 59:50.9 11:58/M
9 Noah Gunn Sugarland TX 116 14 276 1:08:48.6 13:46/M
Top

Male 15 to 19

Place Name City Bib No Age Overall Total Time Pace
1 Nathan Allen Sugar Land TX 306 19 2 27:34.5 5:31/M
2 Patrick Bourg Houston TX 254 15 5 29:47.1 5:57/M
3 Jacob Geiger Frisco TX 351 17 8 30:27.8 6:06/M
4 Brandon Phegley Sugar Land TX 348 18 9 30:54.9 6:11/M
5 Jared Clark Bellaire TX 156 19 24 33:47.6 6:46/M
6 Joshua Allen Sugar Land TX 307 16 38 35:19.0 7:04/M
7 Ethan Varvelo Channelview TX 298 18 45 36:27.4 7:17/M
8 Jacob Abshire Houston TX 302 19 79 39:26.6 7:53/M
9 Peter Mixon Missouri City TX 202 15 87 40:48.9 8:10/M
10 Ethan Cox Sugar Land TX 222 19 147 46:45.5 9:21/M
11 Nathan Johnson Sugar Land TX 38 17 202 53:18.5 10:40/M
12 Sam Simon Chappell Hill TX 262 19 223 58:14.1 11:39/M
13 Jared Cipitelli Katy TX 270 16 226 58:27.8 11:42/M
14 William Moellmer Cypress TX 148 17 266 1:03:49.5 12:46/M
15 Sam Hayes Sugar Land TX 288 19 272 1:06:49.0 13:22/M
16 Thomas Hayes Sugar Land TX 289 17 283 1:14:25.4 14:53/M
Top

Male 20 to 24

Place Name City Bib No Age Overall Total Time Pace
1 Matt Abshire Houston TX 303 22 3 29:04.1 5:49/M
2 David Chambers Sugar Land TX 158 24 11 30:56.7 6:11/M
3 Ajay Nair Richmond TX 143 23 15 31:39.4 6:20/M
4 Kutler Brown Tomball TX 132 21 32 34:47.8 6:58/M
5 Aidan Rangel Richmond TX 146 21 41 35:30.2 7:06/M
6 Garret Hanson Manvel TX 214 23 44 36:26.6 7:17/M
7 David Nemoto Jr. Houston TX 267 20 49 36:59.7 7:24/M
8 Andrew Elder Tomball TX 134 21 56 37:40.3 7:32/M
9 Matthew Geiger Frisco TX 353 21 127 44:41.0 8:56/M
10 Joshua Thorne Richmond TX 278 24 179 50:10.7 10:02/M
11 Efrain Rodriguez Stafford TX 216 20 220 55:44.0 11:09/M
12 Michael Hayes Sugar Land TX 290 22 281 1:12:16.4 14:27/M
Top

Male 25 to 29

Place Name City Bib No Age Overall Total Time Pace
1 Kevin Diverde Houston TX 234 28 4 29:26.1 5:53/M
2 David Ortega Provo UT 135 27 30 34:22.1 6:52/M
3 Matthew Byrd Petal MS 260 28 118 43:53.1 8:47/M
4 Daniel Hanson Sugar Land Tx TX 299 26 191 51:35.7 10:19/M
5 Amer Ismail Sugar Land TX 108 27 200 52:20.4 10:28/M
6 Matthew King Sugar Land TX 86 26 232 59:28.9 11:54/M
7 Tommie Hunter Deer Park TX 142 26 253 1:02:28.0 12:30/M
8 William Shappee Houston TX 338 27 263 1:03:36.1 12:43/M
Top

Male 30 to 34

Place Name City Bib No Age Overall Total Time Pace
1 Hugo Sanchez Houston TX 256 32 19 32:24.9 6:29/M
2 Hector Bonilla Pearland TX 80 32 22 33:32.3 6:42/M
3 Joseph Manuel Sugar Land TX 291 31 46 36:34.9 7:19/M
4 Matthew Tomas Richmond TX 163 30 53 37:31.9 7:30/M
5 Connor Harris Georgetown TX 228 30 62 38:23.5 7:41/M
6 Vu Ha Katy TX 181 32 110 43:09.9 8:38/M
7 Jennifer Manuel Sugar Land TX 292 31 214 55:10.5 11:02/M
8 Chris Lewis Sugar Land TX 49 34 274 1:07:26.3 13:29/M
Top

Male 35 to 39

Place Name City Bib No Age Overall Total Time Pace
1 Greg Brant Corpus Christi TX 209 39 7 29:55.3 5:59/M
2 Felipe Gaspar Houston TX 250 38 10 30:55.6 6:11/M
3 Alex Gerber Sugar Land TX 58 39 20 32:40.0 6:32/M
4 James Caron Sugar Land TX 47 39 23 33:37.0 6:43/M
5 Christian Correa Houston TX 355 38 25 34:00.7 6:48/M
6 Ben Bromberg Sugar Land TX 71 38 102 41:33.2 8:19/M
7 Jimmy Obalua Houston TX 323 35 108 43:03.0 8:37/M
8 Tien Le Sugar Land TX 191 37 111 43:09.9 8:38/M
9 John Payne Missouri City TX 310 38 123 44:21.3 8:52/M
10 Adrian Dunlap Houston TX 177 37 150 47:17.6 9:28/M
11 David Kanches Houston TX 294 38 165 48:54.6 9:47/M
12 Arturo Torres Houston TX 115 36 186 50:55.2 10:11/M
13 Ryan Safron Houston TX 62 35 194 51:57.1 10:23/M
14 Russell Ryan Sugar Land TX 212 39 212 54:53.7 10:59/M
15 Ryan Zimmerman Sugar Land TX 242 37 215 55:13.2 11:03/M
16 Michael Mixon Webster Groves MO 309 38 288 1:22:38.6 16:32/M
Top

Male 40 to 44

Place Name City Bib No Age Overall Total Time Pace
1 Konstantin Loguinov Houston TX 153 43 21 33:02.7 6:37/M
2 Cabral Williams Houston TX 213 42 28 34:02.5 6:49/M
3 Kenneth Halligan Sugar Land TX 27 43 89 41:01.5 8:12/M
4 Brian Nawara Richmond TX 184 40 112 43:12.3 8:38/M
5 David Rippetoe Sugar Land TX 330 43 119 43:56.0 8:47/M
6 Andrew Threatt Richmond TX 155 40 124 44:28.0 8:54/M
7 Aart Slikker Richmond TX 111 42 142 46:06.8 9:13/M
8 Mark Holden Houston TX 327 42 161 48:35.9 9:43/M
9 Damon Goebel San Antonio TX 165 43 169 49:13.6 9:51/M
10 Chris Toc Richmond TX 25 40 171 49:24.1 9:53/M
11 Johan Alvarenga Houston TX 335 40 181 50:17.7 10:04/M
12 David Ross Sugar Land TX 87 42 197 52:08.3 10:26/M
13 Haitham Baba Sugar Land TX 224 44 201 52:49.9 10:34/M
14 Robert Johnson Sugar Land TX 36 41 203 53:27.9 10:42/M
Top

Male 45 to 49

Place Name City Bib No Age Overall Total Time Pace
1 Sharif Aboelnaga Sugar Land TX 218 47 17 31:58.1 6:24/M
2 Aaron Lavictoire Pearland TX 102 45 34 34:53.3 6:59/M
3 Hermes Hinojosa Richmond TX 112 49 37 35:08.6 7:02/M
4 Sean Straley Sugar Land TX 128 48 59 38:12.4 7:38/M
5 Steven Moseley Katy TX 125 47 91 41:02.6 8:13/M
6 Narjit Chadha Sugar Land TX 70 46 98 41:24.7 8:17/M
7 Brad Carey Richmond TX 104 48 99 41:25.9 8:17/M
8 Charley Bourg Houston TX 253 48 114 43:17.0 8:39/M
9 Mark Mixon Missouri City TX 201 47 125 44:29.7 8:54/M
10 Matt Childs Missouri City TX 91 45 131 44:55.9 8:59/M
11 Chris White Missouri City TX 240 45 189 51:31.5 10:18/M
12 Jason Mireles Houston TX 189 48 205 53:29.5 10:42/M
13 Aaron Burros Houston TX 230 49 221 57:49.7 11:34/M
14 Hector Ruiz Houston TX 356 47 255 1:02:28.1 12:30/M
15 Brian Hayes Sugar Land TX 287 47 284 1:14:25.5 14:53/M
Top

Male 50 to 54

Place Name City Bib No Age Overall Total Time Pace
1 Carlos Ramos Houston TX 180 54 33 34:48.8 6:58/M
2 Robert Geiger Frisco TX 352 53 58 38:09.5 7:38/M
3 Matthew Herbst Sugar Land TX 280 52 61 38:20.2 7:40/M
4 Michael McDonough Houston TX 138 51 81 39:28.5 7:54/M
5 Steve Goodweather Houston TX 274 51 140 46:01.9 9:12/M
6 Robert Sabol Sugar Land TX 2 50 149 47:08.1 9:26/M
7 Dwayne Gassmann Missouri City TX 182 54 198 52:17.1 10:27/M
8 Victor Mendiola Sugar Land TX 60 54 246 1:01:30.3 12:18/M
9 Manish Patel Missouri City TX 318 52 259 1:02:46.1 12:33/M
10 Scott Schepps Houston TX 304 54 270 1:06:19.2 13:16/M
11 Bobby Justice Spring TX 244 50 277 1:09:06.2 13:49/M
Top

Male 55 to 59

Place Name City Bib No Age Overall Total Time Pace
1 Ronald Arrington Houston TX 354 55 43 36:10.9 7:14/M
2 David Nemoto Houston TX 266 57 50 37:12.8 7:27/M
3 David Coats Houston TX 97 59 66 38:35.7 7:43/M
4 Malcolm Greig Sugar Land TX 106 58 68 38:51.7 7:46/M
5 Rob Task Houston TX 119 55 72 39:07.0 7:49/M
6 Curtis Albitz Houston TX 173 57 74 39:09.7 7:50/M
7 Russell Abshire Houston TX 301 58 80 39:27.1 7:53/M
8 Don Fess Missouri City TX 204 55 88 40:57.1 8:11/M
9 Chip Allen Sugar Land TX 305 56 92 41:03.3 8:13/M
10 Marty Appelbaum Sugar Land TX 73 58 134 45:10.1 9:02/M
11 Robert Sawchuk Sugar Land TX 157 55 152 47:29.8 9:30/M
12 Jimmy Toy Sugar Land TX 64 55 159 48:21.8 9:40/M
13 Doug Hyde Sugar Land TX 194 58 176 50:00.8 10:00/M
14 David Gonzales Houston TX 113 59 183 50:32.7 10:07/M
15 Ronald Booth Sugar Land TX 333 57 193 51:42.7 10:21/M
16 Hari Kumar Richmond TX 144 55 249 1:01:46.0 12:21/M
17 Steve Goss Fulshear TX 168 56 257 1:02:45.7 12:33/M
18 Bill King Sguar Land TX 84 55 275 1:07:28.6 13:30/M
19 Joel Levine Missouri City TX 172 59 287 1:21:50.3 16:22/M
Top

Male 60 to 64

Place Name City Bib No Age Overall Total Time Pace
1 Skip Teel Friendswood TX 236 62 47 36:45.3 7:21/M
2 Greg Plate Sugar Land TX 66 63 130 44:55.2 8:59/M
3 Chuck Gurney Sugar Land TX 17 63 132 45:00.8 9:00/M
4 Samuel Rubbico Missouri City TX 319 60 145 46:25.0 9:17/M
5 Chuck Sweeney Sugar Land TX 123 62 174 49:36.6 9:55/M
6 Garry Matocha Spring TX 10 63 208 53:48.9 10:46/M
7 Wes Bromberg Rosenberg TX 264 60 213 55:03.0 11:01/M
8 Jim Zimmerman Sugar Land TX 241 62 217 55:18.4 11:04/M
9 Timothy Leite Houston TX 283 62 240 1:00:41.7 12:08/M
10 Keith Cox Sugar Land TX 192 62 285 1:16:03.2 15:13/M
11 Wayne Rachlen Sugar Land TX 109 64 286 1:19:53.8 15:59/M
Top

Male 65 and Over

Place Name City Bib No Age Overall Total Time Pace
1 John Polisini Houston TX 221 67 69 38:51.9 7:46/M
2 Doug Earle Sugar Land TX 243 68 85 40:35.3 8:07/M
3 Richard Bryant Sugar Land TX 205 68 113 43:12.5 8:39/M
4 Michael Bayer Richmond TX 42 65 178 50:10.7 10:02/M
5 R Don Ruggles Boerne TX 324 76 185 50:36.6 10:07/M
6 Robert Tyson Sugar Land TX 252 69 207 53:44.6 10:45/M
7 Allan Antich Sugar Land TX 187 72 210 54:40.9 10:56/M
8 Kim Schwartz Sugar Land TX 13 65 218 55:31.8 11:06/M
 

Blind Runner

Top

Ages 99 and Under

Place Name City Bib No Age Overall Total Time Pace
1 Brandon Adame Houston TX 336 37 1 41:17.6 8:16/M